sensor_id;sensor_type;location;lat;lon;timestamp;temperature;humidity
2465;DHT22;1244;54.326;10.074;2023-07-13T00:01:31;15.10;99.90
2465;DHT22;1244;54.326;10.074;2023-07-13T00:06:25;15.20;99.90
2465;DHT22;1244;54.326;10.074;2023-07-13T00:08:51;15.20;99.90
2465;DHT22;1244;54.326;10.074;2023-07-13T00:11:18;15.10;99.90
2465;DHT22;1244;54.326;10.074;2023-07-13T00:13:44;15.10;99.90
2465;DHT22;1244;54.326;10.074;2023-07-13T00:16:11;15.10;99.90
2465;DHT22;1244;54.326;10.074;2023-07-13T00:18:37;15.00;99.90
2465;DHT22;1244;54.326;10.074;2023-07-13T00:21:03;14.90;99.90
2465;DHT22;1244;54.326;10.074;2023-07-13T00:23:34;14.80;99.90
2465;DHT22;1244;54.326;10.074;2023-07-13T00:26:08;14.90;99.90
2465;DHT22;1244;54.326;10.074;2023-07-13T00:28:35;14.90;99.90
2465;DHT22;1244;54.326;10.074;2023-07-13T00:31:02;14.80;99.90
2465;DHT22;1244;54.326;10.074;2023-07-13T00:33:28;14.90;99.90
2465;DHT22;1244;54.326;10.074;2023-07-13T00:35:55;15.00;99.90
2465;DHT22;1244;54.326;10.074;2023-07-13T00:38:21;15.00;99.90
2465;DHT22;1244;54.326;10.074;2023-07-13T00:40:47;15.00;99.90
2465;DHT22;1244;54.326;10.074;2023-07-13T00:48:18;15.00;99.90
2465;DHT22;1244;54.326;10.074;2023-07-13T00:50:48;15.10;99.90
2465;DHT22;1244;54.326;10.074;2023-07-13T00:53:15;15.10;99.90
2465;DHT22;1244;54.326;10.074;2023-07-13T00:55:40;15.10;99.90
2465;DHT22;1244;54.326;10.074;2023-07-13T00:58:06;15.00;99.90
2465;DHT22;1244;54.326;10.074;2023-07-13T01:00:35;14.90;99.90
2465;DHT22;1244;54.326;10.074;2023-07-13T01:03:02;14.90;99.90
2465;DHT22;1244;54.326;10.074;2023-07-13T01:05:31;14.80;99.90
2465;DHT22;1244;54.326;10.074;2023-07-13T01:07:57;14.80;99.90
2465;DHT22;1244;54.326;10.074;2023-07-13T01:10:24;14.80;99.90
2465;DHT22;1244;54.326;10.074;2023-07-13T01:12:50;14.80;99.90
2465;DHT22;1244;54.326;10.074;2023-07-13T01:15:40;14.80;99.90
2465;DHT22;1244;54.326;10.074;2023-07-13T01:18:19;14.70;99.90
2465;DHT22;1244;54.326;10.074;2023-07-13T01:21:02;14.70;99.90
2465;DHT22;1244;54.326;10.074;2023-07-13T01:23:30;14.80;99.90
2465;DHT22;1244;54.326;10.074;2023-07-13T01:25:56;14.70;99.90
2465;DHT22;1244;54.326;10.074;2023-07-13T01:28:23;14.70;99.90
2465;DHT22;1244;54.326;10.074;2023-07-13T01:30:53;14.80;99.90
2465;DHT22;1244;54.326;10.074;2023-07-13T01:35:46;14.80;99.90
2465;DHT22;1244;54.326;10.074;2023-07-13T01:38:16;14.80;99.90
2465;DHT22;1244;54.326;10.074;2023-07-13T01:40:43;14.80;99.90
2465;DHT22;1244;54.326;10.074;2023-07-13T01:43:09;14.70;99.90
2465;DHT22;1244;54.326;10.074;2023-07-13T01:45:34;14.80;99.90
2465;DHT22;1244;54.326;10.074;2023-07-13T01:48:00;14.80;99.90
2465;DHT22;1244;54.326;10.074;2023-07-13T01:50:26;14.70;99.90
2465;DHT22;1244;54.326;10.074;2023-07-13T01:52:52;14.60;99.90
2465;DHT22;1244;54.326;10.074;2023-07-13T01:55:18;14.70;99.90
2465;DHT22;1244;54.326;10.074;2023-07-13T01:57:44;14.70;99.90
2465;DHT22;1244;54.326;10.074;2023-07-13T02:00:10;14.60;99.90
2465;DHT22;1244;54.326;10.074;2023-07-13T02:02:36;14.60;99.90
2465;DHT22;1244;54.326;10.074;2023-07-13T02:05:02;14.60;99.90
2465;DHT22;1244;54.326;10.074;2023-07-13T02:09:54;14.60;99.90
2465;DHT22;1244;54.326;10.074;2023-07-13T02:12:19;14.60;99.90
2465;DHT22;1244;54.326;10.074;2023-07-13T02:14:45;14.60;99.90
2465;DHT22;1244;54.326;10.074;2023-07-13T02:17:12;14.50;99.90
2465;DHT22;1244;54.326;10.074;2023-07-13T02:19:38;14.60;99.90
2465;DHT22;1244;54.326;10.074;2023-07-13T02:22:04;14.50;99.90
2465;DHT22;1244;54.326;10.074;2023-07-13T02:24:30;14.50;99.90
2465;DHT22;1244;54.326;10.074;2023-07-13T02:26:55;14.40;99.90
2465;DHT22;1244;54.326;10.074;2023-07-13T02:29:21;14.50;99.90
2465;DHT22;1244;54.326;10.074;2023-07-13T02:31:46;14.40;99.90
2465;DHT22;1244;54.326;10.074;2023-07-13T02:34:12;14.40;99.90
2465;DHT22;1244;54.326;10.074;2023-07-13T02:36:38;14.50;99.90
2465;DHT22;1244;54.326;10.074;2023-07-13T02:39:06;14.50;99.90
2465;DHT22;1244;54.326;10.074;2023-07-13T02:41:32;14.40;99.90
2465;DHT22;1244;54.326;10.074;2023-07-13T02:43:58;14.40;99.90
2465;DHT22;1244;54.326;10.074;2023-07-13T02:46:30;14.40;99.90
2465;DHT22;1244;54.326;10.074;2023-07-13T02:48:55;14.40;99.90
2465;DHT22;1244;54.326;10.074;2023-07-13T02:51:21;14.50;99.90
2465;DHT22;1244;54.326;10.074;2023-07-13T02:53:46;14.40;99.90
2465;DHT22;1244;54.326;10.074;2023-07-13T02:56:12;14.40;99.90
2465;DHT22;1244;54.326;10.074;2023-07-13T02:58:38;14.40;99.90
2465;DHT22;1244;54.326;10.074;2023-07-13T03:01:08;14.40;99.90
2465;DHT22;1244;54.326;10.074;2023-07-13T03:03:34;14.40;99.90
2465;DHT22;1244;54.326;10.074;2023-07-13T03:06:02;14.40;99.90
2465;DHT22;1244;54.326;10.074;2023-07-13T03:08:29;14.40;99.90
2465;DHT22;1244;54.326;10.074;2023-07-13T03:11:03;14.40;99.90
2465;DHT22;1244;54.326;10.074;2023-07-13T03:13:28;14.40;99.90
2465;DHT22;1244;54.326;10.074;2023-07-13T03:15:54;14.40;99.90
2465;DHT22;1244;54.326;10.074;2023-07-13T03:18:19;14.30;99.90
2465;DHT22;1244;54.326;10.074;2023-07-13T03:20:45;14.40;99.90
2465;DHT22;1244;54.326;10.074;2023-07-13T03:28:16;14.30;99.90
2465;DHT22;1244;54.326;10.074;2023-07-13T03:30:42;14.30;99.90
2465;DHT22;1244;54.326;10.074;2023-07-13T03:35:40;14.40;99.90
2465;DHT22;1244;54.326;10.074;2023-07-13T03:38:06;14.40;99.90
2465;DHT22;1244;54.326;10.074;2023-07-13T03:40:31;14.40;99.90
2465;DHT22;1244;54.326;10.074;2023-07-13T03:42:57;14.40;99.90
2465;DHT22;1244;54.326;10.074;2023-07-13T03:45:22;14.40;99.90
2465;DHT22;1244;54.326;10.074;2023-07-13T03:47:48;14.40;99.90
2465;DHT22;1244;54.326;10.074;2023-07-13T03:50:13;14.50;99.90
2465;DHT22;1244;54.326;10.074;2023-07-13T03:52:39;14.50;99.90
2465;DHT22;1244;54.326;10.074;2023-07-13T03:55:05;14.50;99.90
2465;DHT22;1244;54.326;10.074;2023-07-13T03:57:31;14.50;99.90
2465;DHT22;1244;54.326;10.074;2023-07-13T03:59:57;14.50;99.90
2465;DHT22;1244;54.326;10.074;2023-07-13T04:02:22;14.50;99.90
2465;DHT22;1244;54.326;10.074;2023-07-13T04:04:48;14.50;99.90
2465;DHT22;1244;54.326;10.074;2023-07-13T04:07:13;14.50;99.90
2465;DHT22;1244;54.326;10.074;2023-07-13T04:09:39;14.50;99.90
2465;DHT22;1244;54.326;10.074;2023-07-13T04:12:05;14.50;99.90
2465;DHT22;1244;54.326;10.074;2023-07-13T04:14:30;14.60;99.90
2465;DHT22;1244;54.326;10.074;2023-07-13T04:16:56;14.60;99.90
2465;DHT22;1244;54.326;10.074;2023-07-13T04:19:22;14.70;99.90
2465;DHT22;1244;54.326;10.074;2023-07-13T04:21:48;14.70;99.90
2465;DHT22;1244;54.326;10.074;2023-07-13T04:24:14;14.70;99.90
2465;DHT22;1244;54.326;10.074;2023-07-13T04:26:40;14.70;99.90
2465;DHT22;1244;54.326;10.074;2023-07-13T04:29:06;14.80;99.90
2465;DHT22;1244;54.326;10.074;2023-07-13T04:31:33;14.80;99.90
2465;DHT22;1244;54.326;10.074;2023-07-13T04:33:59;14.80;99.90
2465;DHT22;1244;54.326;10.074;2023-07-13T04:36:25;14.90;99.90
2465;DHT22;1244;54.326;10.074;2023-07-13T04:38:52;14.90;99.90
2465;DHT22;1244;54.326;10.074;2023-07-13T04:41:20;14.90;99.90
2465;DHT22;1244;54.326;10.074;2023-07-13T04:43:45;14.90;99.90
2465;DHT22;1244;54.326;10.074;2023-07-13T04:46:14;14.90;99.90
2465;DHT22;1244;54.326;10.074;2023-07-13T04:48:39;15.00;99.90
2465;DHT22;1244;54.326;10.074;2023-07-13T04:53:31;15.10;99.90
2465;DHT22;1244;54.326;10.074;2023-07-13T04:55:57;15.20;99.90
2465;DHT22;1244;54.326;10.074;2023-07-13T04:58:24;15.30;99.90
2465;DHT22;1244;54.326;10.074;2023-07-13T05:00:50;15.40;99.90
2465;DHT22;1244;54.326;10.074;2023-07-13T05:03:15;15.50;99.90
2465;DHT22;1244;54.326;10.074;2023-07-13T05:05:41;15.60;99.90
2465;DHT22;1244;54.326;10.074;2023-07-13T05:08:06;15.70;99.90
2465;DHT22;1244;54.326;10.074;2023-07-13T05:10:33;15.80;99.90
2465;DHT22;1244;54.326;10.074;2023-07-13T05:12:59;15.90;99.90
2465;DHT22;1244;54.326;10.074;2023-07-13T05:15:24;15.70;99.90
2465;DHT22;1244;54.326;10.074;2023-07-13T05:17:51;15.90;99.90
2465;DHT22;1244;54.326;10.074;2023-07-13T05:20:17;16.00;99.90
2465;DHT22;1244;54.326;10.074;2023-07-13T05:22:43;16.00;99.90
2465;DHT22;1244;54.326;10.074;2023-07-13T05:25:09;16.10;99.90
2465;DHT22;1244;54.326;10.074;2023-07-13T05:27:35;16.00;99.90
2465;DHT22;1244;54.326;10.074;2023-07-13T05:30:02;16.00;99.90
2465;DHT22;1244;54.326;10.074;2023-07-13T05:32:28;16.10;99.90
2465;DHT22;1244;54.326;10.074;2023-07-13T05:34:54;16.00;99.90
2465;DHT22;1244;54.326;10.074;2023-07-13T05:37:19;16.10;99.90
2465;DHT22;1244;54.326;10.074;2023-07-13T05:39:45;16.10;99.90
2465;DHT22;1244;54.326;10.074;2023-07-13T05:42:10;16.00;99.90
2465;DHT22;1244;54.326;10.074;2023-07-13T05:44:36;16.00;99.90
2465;DHT22;1244;54.326;10.074;2023-07-13T05:47:01;16.00;99.90
2465;DHT22;1244;54.326;10.074;2023-07-13T05:49:27;16.10;99.90
2465;DHT22;1244;54.326;10.074;2023-07-13T05:51:53;16.10;99.90
2465;DHT22;1244;54.326;10.074;2023-07-13T05:54:18;16.10;99.90
2465;DHT22;1244;54.326;10.074;2023-07-13T05:56:44;16.30;99.90
2465;DHT22;1244;54.326;10.074;2023-07-13T05:59:09;16.20;99.90
2465;DHT22;1244;54.326;10.074;2023-07-13T06:01:35;16.20;99.90
2465;DHT22;1244;54.326;10.074;2023-07-13T06:06:29;16.30;99.90
2465;DHT22;1244;54.326;10.074;2023-07-13T06:08:54;16.40;99.90
2465;DHT22;1244;54.326;10.074;2023-07-13T06:11:23;16.50;99.90
2465;DHT22;1244;54.326;10.074;2023-07-13T06:13:49;16.60;99.90
2465;DHT22;1244;54.326;10.074;2023-07-13T06:16:15;16.70;99.90
2465;DHT22;1244;54.326;10.074;2023-07-13T06:18:41;16.50;99.90
2465;DHT22;1244;54.326;10.074;2023-07-13T06:23:36;16.60;99.90
2465;DHT22;1244;54.326;10.074;2023-07-13T06:26:02;16.80;99.90
2465;DHT22;1244;54.326;10.074;2023-07-13T06:28:28;16.70;99.90
2465;DHT22;1244;54.326;10.074;2023-07-13T06:30:55;16.80;99.90
2465;DHT22;1244;54.326;10.074;2023-07-13T06:33:20;16.80;99.90
2465;DHT22;1244;54.326;10.074;2023-07-13T06:35:45;17.00;99.90
2465;DHT22;1244;54.326;10.074;2023-07-13T06:38:11;17.00;99.90
2465;DHT22;1244;54.326;10.074;2023-07-13T06:40:36;17.10;99.90
2465;DHT22;1244;54.326;10.074;2023-07-13T06:43:02;17.10;99.90
2465;DHT22;1244;54.326;10.074;2023-07-13T06:45:28;17.00;99.90
2465;DHT22;1244;54.326;10.074;2023-07-13T06:47:53;17.00;99.90
2465;DHT22;1244;54.326;10.074;2023-07-13T06:50:19;17.00;99.90
2465;DHT22;1244;54.326;10.074;2023-07-13T06:52:44;16.90;99.90
2465;DHT22;1244;54.326;10.074;2023-07-13T06:55:10;17.10;99.90
2465;DHT22;1244;54.326;10.074;2023-07-13T06:57:35;17.20;99.90
2465;DHT22;1244;54.326;10.074;2023-07-13T07:00:01;17.20;99.90
2465;DHT22;1244;54.326;10.074;2023-07-13T07:02:26;17.20;99.90
2465;DHT22;1244;54.326;10.074;2023-07-13T07:04:52;17.20;99.90
2465;DHT22;1244;54.326;10.074;2023-07-13T07:07:19;17.40;99.90
2465;DHT22;1244;54.326;10.074;2023-07-13T07:09:45;17.40;99.90
2465;DHT22;1244;54.326;10.074;2023-07-13T07:12:10;17.50;99.90
2465;DHT22;1244;54.326;10.074;2023-07-13T07:14:36;17.60;99.90
2465;DHT22;1244;54.326;10.074;2023-07-13T07:17:01;17.90;99.90
2465;DHT22;1244;54.326;10.074;2023-07-13T07:19:30;17.90;99.90
2465;DHT22;1244;54.326;10.074;2023-07-13T07:21:56;18.20;99.90
2465;DHT22;1244;54.326;10.074;2023-07-13T07:24:21;17.90;99.90
2465;DHT22;1244;54.326;10.074;2023-07-13T07:26:47;18.20;99.90
2465;DHT22;1244;54.326;10.074;2023-07-13T07:29:12;18.30;99.90
2465;DHT22;1244;54.326;10.074;2023-07-13T07:31:38;18.80;99.90
2465;DHT22;1244;54.326;10.074;2023-07-13T07:34:03;19.00;99.90
2465;DHT22;1244;54.326;10.074;2023-07-13T07:36:29;19.10;99.90
2465;DHT22;1244;54.326;10.074;2023-07-13T07:38:54;19.00;99.90
2465;DHT22;1244;54.326;10.074;2023-07-13T07:41:20;18.80;99.90
2465;DHT22;1244;54.326;10.074;2023-07-13T07:43:45;18.80;99.90
2465;DHT22;1244;54.326;10.074;2023-07-13T07:46:11;19.00;99.90
2465;DHT22;1244;54.326;10.074;2023-07-13T07:48:36;19.20;99.90
2465;DHT22;1244;54.326;10.074;2023-07-13T07:51:02;19.40;99.90
2465;DHT22;1244;54.326;10.074;2023-07-13T07:53:27;19.60;99.90
2465;DHT22;1244;54.326;10.074;2023-07-13T07:55:53;20.10;99.90
2465;DHT22;1244;54.326;10.074;2023-07-13T07:58:18;20.30;99.90
2465;DHT22;1244;54.326;10.074;2023-07-13T08:00:44;20.30;99.90
2465;DHT22;1244;54.326;10.074;2023-07-13T08:03:10;19.90;99.90
2465;DHT22;1244;54.326;10.074;2023-07-13T08:05:36;19.60;99.90
2465;DHT22;1244;54.326;10.074;2023-07-13T08:08:02;19.30;99.90
2465;DHT22;1244;54.326;10.074;2023-07-13T08:10:28;19.00;99.90
2465;DHT22;1244;54.326;10.074;2023-07-13T08:12:53;18.50;99.90
2465;DHT22;1244;54.326;10.074;2023-07-13T08:15:19;18.30;99.90
2465;DHT22;1244;54.326;10.074;2023-07-13T08:17:47;18.30;99.90
2465;DHT22;1244;54.326;10.074;2023-07-13T08:20:13;18.10;99.90
2465;DHT22;1244;54.326;10.074;2023-07-13T08:22:39;18.00;99.90
2465;DHT22;1244;54.326;10.074;2023-07-13T08:25:04;18.00;99.90
2465;DHT22;1244;54.326;10.074;2023-07-13T08:27:30;17.80;99.90
2465;DHT22;1244;54.326;10.074;2023-07-13T08:29:56;17.90;99.90
2465;DHT22;1244;54.326;10.074;2023-07-13T08:32:22;17.90;99.90
2465;DHT22;1244;54.326;10.074;2023-07-13T08:34:48;17.90;99.90
2465;DHT22;1244;54.326;10.074;2023-07-13T08:37:15;18.00;99.90
2465;DHT22;1244;54.326;10.074;2023-07-13T08:39:41;18.30;99.90
2465;DHT22;1244;54.326;10.074;2023-07-13T08:45:19;18.80;99.90
2465;DHT22;1244;54.326;10.074;2023-07-13T08:48:10;18.80;99.90
2465;DHT22;1244;54.326;10.074;2023-07-13T08:53:40;18.20;99.90
2465;DHT22;1244;54.326;10.074;2023-07-13T08:56:14;17.40;99.90
2465;DHT22;1244;54.326;10.074;2023-07-13T08:58:41;16.60;99.90
2465;DHT22;1244;54.326;10.074;2023-07-13T09:04:16;15.60;99.90
2465;DHT22;1244;54.326;10.074;2023-07-13T09:14:56;15.70;99.90
2465;DHT22;1244;54.326;10.074;2023-07-13T09:17:28;16.00;99.90
2465;DHT22;1244;54.326;10.074;2023-07-13T09:20:12;16.70;99.90
2465;DHT22;1244;54.326;10.074;2023-07-13T09:22:41;17.40;99.90
2465;DHT22;1244;54.326;10.074;2023-07-13T09:25:24;18.10;99.90
2465;DHT22;1244;54.326;10.074;2023-07-13T09:27:53;18.30;99.90
2465;DHT22;1244;54.326;10.074;2023-07-13T09:30:24;18.60;99.90
2465;DHT22;1244;54.326;10.074;2023-07-13T09:32:53;19.20;99.90
2465;DHT22;1244;54.326;10.074;2023-07-13T09:35:22;19.50;99.90
2465;DHT22;1244;54.326;10.074;2023-07-13T09:37:48;19.80;99.90
2465;DHT22;1244;54.326;10.074;2023-07-13T09:40:23;20.30;99.90
2465;DHT22;1244;54.326;10.074;2023-07-13T09:42:52;20.20;99.90
2465;DHT22;1244;54.326;10.074;2023-07-13T09:45:29;20.30;99.90
2465;DHT22;1244;54.326;10.074;2023-07-13T09:48:06;20.40;99.90
2465;DHT22;1244;54.326;10.074;2023-07-13T09:50:34;20.60;99.90
2465;DHT22;1244;54.326;10.074;2023-07-13T09:53:01;20.40;99.90
2465;DHT22;1244;54.326;10.074;2023-07-13T09:55:38;20.50;99.90
2465;DHT22;1244;54.326;10.074;2023-07-13T09:58:12;20.70;99.90
2465;DHT22;1244;54.326;10.074;2023-07-13T10:00:38;21.30;99.90
2465;DHT22;1244;54.326;10.074;2023-07-13T10:03:23;21.40;99.90
2465;DHT22;1244;54.326;10.074;2023-07-13T10:05:50;21.70;99.90
2465;DHT22;1244;54.326;10.074;2023-07-13T10:10:53;20.10;99.90
2465;DHT22;1244;54.326;10.074;2023-07-13T10:13:33;19.20;99.90
2465;DHT22;1244;54.326;10.074;2023-07-13T10:16:03;18.70;99.90
2465;DHT22;1244;54.326;10.074;2023-07-13T10:18:34;18.60;99.90
2465;DHT22;1244;54.326;10.074;2023-07-13T10:21:14;19.00;99.90
2465;DHT22;1244;54.326;10.074;2023-07-13T10:23:40;19.80;99.90
2465;DHT22;1244;54.326;10.074;2023-07-13T10:26:14;20.70;99.90
2465;DHT22;1244;54.326;10.074;2023-07-13T10:28:41;21.20;99.90
2465;DHT22;1244;54.326;10.074;2023-07-13T10:31:12;21.60;99.90
2465;DHT22;1244;54.326;10.074;2023-07-13T10:33:38;21.60;99.90
2465;DHT22;1244;54.326;10.074;2023-07-13T10:36:16;22.10;99.90
2465;DHT22;1244;54.326;10.074;2023-07-13T10:38:43;22.20;99.90
2465;DHT22;1244;54.326;10.074;2023-07-13T10:41:14;22.10;99.90
2465;DHT22;1244;54.326;10.074;2023-07-13T10:43:50;22.30;99.90
2465;DHT22;1244;54.326;10.074;2023-07-13T10:46:19;22.50;99.90
2465;DHT22;1244;54.326;10.074;2023-07-13T10:48:49;22.90;99.90
2465;DHT22;1244;54.326;10.074;2023-07-13T10:51:18;22.90;99.90
2465;DHT22;1244;54.326;10.074;2023-07-13T10:53:45;23.20;99.90
2465;DHT22;1244;54.326;10.074;2023-07-13T10:56:26;23.00;99.90
2465;DHT22;1244;54.326;10.074;2023-07-13T10:59:14;23.40;99.90
2465;DHT22;1244;54.326;10.074;2023-07-13T11:04:29;24.10;99.90
2465;DHT22;1244;54.326;10.074;2023-07-13T11:07:18;24.10;99.90
2465;DHT22;1244;54.326;10.074;2023-07-13T11:09:53;24.20;99.90
2465;DHT22;1244;54.326;10.074;2023-07-13T11:12:28;24.10;99.90
2465;DHT22;1244;54.326;10.074;2023-07-13T11:15:13;24.10;99.90
2465;DHT22;1244;54.326;10.074;2023-07-13T11:17:54;24.60;99.90
2465;DHT22;1244;54.326;10.074;2023-07-13T11:20:37;24.80;99.90
2465;DHT22;1244;54.326;10.074;2023-07-13T11:25:39;25.00;99.90
2465;DHT22;1244;54.326;10.074;2023-07-13T11:30:39;24.80;99.90
2465;DHT22;1244;54.326;10.074;2023-07-13T11:33:21;24.40;99.90
2465;DHT22;1244;54.326;10.074;2023-07-13T11:35:57;25.00;99.90
2465;DHT22;1244;54.326;10.074;2023-07-13T11:38:41;24.30;99.90
2465;DHT22;1244;54.326;10.074;2023-07-13T11:41:22;24.80;99.90
2465;DHT22;1244;54.326;10.074;2023-07-13T11:43:54;25.10;99.90
2465;DHT22;1244;54.326;10.074;2023-07-13T11:46:25;23.90;99.90
2465;DHT22;1244;54.326;10.074;2023-07-13T11:48:52;24.80;99.90
2465;DHT22;1244;54.326;10.074;2023-07-13T11:51:32;26.10;99.90
2465;DHT22;1244;54.326;10.074;2023-07-13T11:54:03;26.00;99.90
2465;DHT22;1244;54.326;10.074;2023-07-13T11:56:30;24.50;99.90
2465;DHT22;1244;54.326;10.074;2023-07-13T11:58:59;24.50;99.90
2465;DHT22;1244;54.326;10.074;2023-07-13T12:01:31;24.40;99.90
2465;DHT22;1244;54.326;10.074;2023-07-13T12:03:59;24.40;99.90
2465;DHT22;1244;54.326;10.074;2023-07-13T12:06:29;23.90;99.90
2465;DHT22;1244;54.326;10.074;2023-07-13T12:09:03;24.70;99.90
2465;DHT22;1244;54.326;10.074;2023-07-13T12:11:30;24.80;99.90
2465;DHT22;1244;54.326;10.074;2023-07-13T12:13:55;24.30;99.90
2465;DHT22;1244;54.326;10.074;2023-07-13T12:16:32;23.70;99.90
2465;DHT22;1244;54.326;10.074;2023-07-13T12:19:00;23.40;99.90
2465;DHT22;1244;54.326;10.074;2023-07-13T12:21:41;22.90;99.90
2465;DHT22;1244;54.326;10.074;2023-07-13T12:24:15;22.70;99.90
2465;DHT22;1244;54.326;10.074;2023-07-13T12:26:40;22.60;99.90
2465;DHT22;1244;54.326;10.074;2023-07-13T12:29:07;22.30;99.90
2465;DHT22;1244;54.326;10.074;2023-07-13T12:31:36;22.10;99.90
2465;DHT22;1244;54.326;10.074;2023-07-13T12:34:07;21.90;99.90
2465;DHT22;1244;54.326;10.074;2023-07-13T12:36:36;22.50;99.90
2465;DHT22;1244;54.326;10.074;2023-07-13T12:39:14;22.80;99.90
2465;DHT22;1244;54.326;10.074;2023-07-13T12:41:40;22.70;99.90
2465;DHT22;1244;54.326;10.074;2023-07-13T12:44:11;22.90;99.90
2465;DHT22;1244;54.326;10.074;2023-07-13T12:46:37;23.20;99.90
2465;DHT22;1244;54.326;10.074;2023-07-13T12:49:05;24.10;99.90
2465;DHT22;1244;54.326;10.074;2023-07-13T12:51:32;23.70;99.90
2465;DHT22;1244;54.326;10.074;2023-07-13T12:54:06;23.40;99.90
2465;DHT22;1244;54.326;10.074;2023-07-13T12:56:37;23.90;99.90
2465;DHT22;1244;54.326;10.074;2023-07-13T12:59:04;23.90;99.90
2465;DHT22;1244;54.326;10.074;2023-07-13T13:01:34;23.30;99.90
2465;DHT22;1244;54.326;10.074;2023-07-13T13:04:02;22.70;99.90
2465;DHT22;1244;54.326;10.074;2023-07-13T13:06:32;22.30;99.90
2465;DHT22;1244;54.326;10.074;2023-07-13T13:09:02;22.10;99.90
2465;DHT22;1244;54.326;10.074;2023-07-13T13:11:31;21.80;99.90
2465;DHT22;1244;54.326;10.074;2023-07-13T13:13:57;21.70;99.90
2465;DHT22;1244;54.326;10.074;2023-07-13T13:16:29;21.50;99.90
2465;DHT22;1244;54.326;10.074;2023-07-13T13:18:58;21.80;99.90
2465;DHT22;1244;54.326;10.074;2023-07-13T13:21:25;21.50;99.90
2465;DHT22;1244;54.326;10.074;2023-07-13T13:23:51;21.70;99.90
2465;DHT22;1244;54.326;10.074;2023-07-13T13:26:18;21.90;99.90
2465;DHT22;1244;54.326;10.074;2023-07-13T13:28:45;21.80;99.90
2465;DHT22;1244;54.326;10.074;2023-07-13T13:31:12;21.80;99.90
2465;DHT22;1244;54.326;10.074;2023-07-13T13:33:40;21.70;99.90
2465;DHT22;1244;54.326;10.074;2023-07-13T13:36:18;21.50;99.90
2465;DHT22;1244;54.326;10.074;2023-07-13T13:38:45;21.60;99.90
2465;DHT22;1244;54.326;10.074;2023-07-13T13:41:12;21.60;99.90
2465;DHT22;1244;54.326;10.074;2023-07-13T13:43:39;21.50;99.90
2465;DHT22;1244;54.326;10.074;2023-07-13T13:46:20;21.60;99.90
2465;DHT22;1244;54.326;10.074;2023-07-13T13:48:48;21.70;99.90
2465;DHT22;1244;54.326;10.074;2023-07-13T13:51:20;21.60;99.90
2465;DHT22;1244;54.326;10.074;2023-07-13T13:53:46;21.40;99.90
2465;DHT22;1244;54.326;10.074;2023-07-13T13:56:13;21.30;99.90
2465;DHT22;1244;54.326;10.074;2023-07-13T13:58:39;21.30;99.90
2465;DHT22;1244;54.326;10.074;2023-07-13T14:01:04;21.10;99.90
2465;DHT22;1244;54.326;10.074;2023-07-13T14:03:34;21.00;99.90
2465;DHT22;1244;54.326;10.074;2023-07-13T14:05:59;20.90;99.90
2465;DHT22;1244;54.326;10.074;2023-07-13T14:08:25;20.70;99.90
2465;DHT22;1244;54.326;10.074;2023-07-13T14:10:53;20.70;99.90
2465;DHT22;1244;54.326;10.074;2023-07-13T14:13:25;20.40;99.90
2465;DHT22;1244;54.326;10.074;2023-07-13T14:15:52;20.50;99.90
2465;DHT22;1244;54.326;10.074;2023-07-13T14:18:18;20.60;99.90
2465;DHT22;1244;54.326;10.074;2023-07-13T14:20:44;21.00;99.90
2465;DHT22;1244;54.326;10.074;2023-07-13T14:23:13;21.40;99.90
2465;DHT22;1244;54.326;10.074;2023-07-13T14:25:39;21.40;99.90
2465;DHT22;1244;54.326;10.074;2023-07-13T14:28:26;21.30;99.90
2465;DHT22;1244;54.326;10.074;2023-07-13T14:30:52;21.00;99.90
2465;DHT22;1244;54.326;10.074;2023-07-13T14:33:19;21.20;99.90
2465;DHT22;1244;54.326;10.074;2023-07-13T14:35:45;21.20;99.90
2465;DHT22;1244;54.326;10.074;2023-07-13T14:38:17;21.20;99.90
2465;DHT22;1244;54.326;10.074;2023-07-13T14:40:43;21.40;99.90
2465;DHT22;1244;54.326;10.074;2023-07-13T14:43:16;21.40;99.90
2465;DHT22;1244;54.326;10.074;2023-07-13T14:45:48;21.60;99.90
2465;DHT22;1244;54.326;10.074;2023-07-13T14:48:23;21.70;99.90
2465;DHT22;1244;54.326;10.074;2023-07-13T14:50:57;21.70;99.90
2465;DHT22;1244;54.326;10.074;2023-07-13T14:53:24;21.90;99.90
2465;DHT22;1244;54.326;10.074;2023-07-13T14:55:50;21.80;99.90
2465;DHT22;1244;54.326;10.074;2023-07-13T14:58:15;22.20;99.90
2465;DHT22;1244;54.326;10.074;2023-07-13T15:00:41;22.40;99.90
2465;DHT22;1244;54.326;10.074;2023-07-13T15:03:18;22.60;99.90
2465;DHT22;1244;54.326;10.074;2023-07-13T15:05:46;22.70;99.90
2465;DHT22;1244;54.326;10.074;2023-07-13T15:08:12;22.70;99.90
2465;DHT22;1244;54.326;10.074;2023-07-13T15:10:38;22.00;99.90
2465;DHT22;1244;54.326;10.074;2023-07-13T15:15:41;22.40;99.90
2465;DHT22;1244;54.326;10.074;2023-07-13T15:18:11;22.30;99.90
2465;DHT22;1244;54.326;10.074;2023-07-13T15:20:37;21.90;99.90
2465;DHT22;1244;54.326;10.074;2023-07-13T15:23:03;21.70;99.90
2465;DHT22;1244;54.326;10.074;2023-07-13T15:25:30;21.70;99.90
2465;DHT22;1244;54.326;10.074;2023-07-13T15:28:05;21.80;99.90
2465;DHT22;1244;54.326;10.074;2023-07-13T15:30:35;21.80;99.90
2465;DHT22;1244;54.326;10.074;2023-07-13T15:33:25;21.90;99.90
2465;DHT22;1244;54.326;10.074;2023-07-13T15:35:51;21.90;99.90
2465;DHT22;1244;54.326;10.074;2023-07-13T15:38:25;21.90;99.90
2465;DHT22;1244;54.326;10.074;2023-07-13T15:40:52;21.90;99.90
2465;DHT22;1244;54.326;10.074;2023-07-13T15:43:18;21.70;99.90
2465;DHT22;1244;54.326;10.074;2023-07-13T15:45:44;21.80;99.90
2465;DHT22;1244;54.326;10.074;2023-07-13T15:48:20;21.90;99.90
2465;DHT22;1244;54.326;10.074;2023-07-13T15:50:51;21.90;99.90
2465;DHT22;1244;54.326;10.074;2023-07-13T15:53:24;21.80;99.90
2465;DHT22;1244;54.326;10.074;2023-07-13T15:55:50;21.80;99.90
2465;DHT22;1244;54.326;10.074;2023-07-13T15:58:17;21.40;99.90
2465;DHT22;1244;54.326;10.074;2023-07-13T16:00:43;21.30;99.90
2465;DHT22;1244;54.326;10.074;2023-07-13T16:03:10;21.30;99.90
2465;DHT22;1244;54.326;10.074;2023-07-13T16:05:36;21.00;99.90
2465;DHT22;1244;54.326;10.074;2023-07-13T16:08:02;20.70;99.90
2465;DHT22;1244;54.326;10.074;2023-07-13T16:10:37;20.70;99.90
2465;DHT22;1244;54.326;10.074;2023-07-13T16:13:18;20.80;99.90
2465;DHT22;1244;54.326;10.074;2023-07-13T16:15:45;20.70;99.90
2465;DHT22;1244;54.326;10.074;2023-07-13T16:18:13;20.70;99.90
2465;DHT22;1244;54.326;10.074;2023-07-13T16:20:40;20.80;99.90
2465;DHT22;1244;54.326;10.074;2023-07-13T16:23:09;20.70;99.90
2465;DHT22;1244;54.326;10.074;2023-07-13T16:25:37;20.60;99.90
2465;DHT22;1244;54.326;10.074;2023-07-13T16:28:02;20.60;99.90
2465;DHT22;1244;54.326;10.074;2023-07-13T16:30:30;20.80;99.90
2465;DHT22;1244;54.326;10.074;2023-07-13T16:32:58;20.90;99.90
2465;DHT22;1244;54.326;10.074;2023-07-13T16:35:37;20.90;99.90
2465;DHT22;1244;54.326;10.074;2023-07-13T16:38:13;20.70;99.90
2465;DHT22;1244;54.326;10.074;2023-07-13T16:40:39;20.40;99.90
2465;DHT22;1244;54.326;10.074;2023-07-13T16:43:06;20.40;99.90
2465;DHT22;1244;54.326;10.074;2023-07-13T16:45:34;20.60;99.90
2465;DHT22;1244;54.326;10.074;2023-07-13T16:48:01;20.30;99.90
2465;DHT22;1244;54.326;10.074;2023-07-13T16:50:32;20.30;99.90